Time;durP1;ratioP1;P1;durP2;ratioP2;P2;SDS_P1;SDS_P2;PMS_P1;PMS_P2;Temp;Humidity;BMP_temperature;BMP_pressure;BME280_temperature;BME280_humidity;BME280_pressure;Samples;Min_cycle;Max_cycle;Signal;HPM_P1;HPM_P2
2023/06/20 00:02:15;;;;;;;5.53;2.25;;;;;;;;;;5019553;28;20050;-74
2023/06/20 00:04:40;;;;;;;7.70;3.15;;;;;;;;;;5019231;28;20041;-72
2023/06/20 00:07:06;;;;;;;5.43;2.63;;;;;;;;;;5020106;28;20049;-74
2023/06/20 00:09:31;;;;;;;3.05;2.53;;;;;;;;;;5019929;28;20556;-73
2023/06/20 00:11:58;;;;;;;4.90;2.70;;;;;;;;;;5026079;28;20046;-71
2023/06/20 00:14:24;;;;;;;2.50;2.05;;;;;;;;;;5018548;28;20049;-73
2023/06/20 00:16:49;;;;;;;3.50;2.85;;;;;;;;;;5019893;28;20053;-72
2023/06/20 00:19:14;;;;;;;2.92;2.70;;;;;;;;;;5018523;28;20052;-72
2023/06/20 00:21:40;;;;;;;4.20;2.80;;;;;;;;;;5020102;28;20127;-71
2023/06/20 00:24:09;;;;;;;4.32;2.80;;;;;;;;;;5019770;28;20049;-73
2023/06/20 00:26:38;;;;;;;5.03;2.83;;;;;;;;;;5019090;28;20086;-74
2023/06/20 00:29:04;;;;;;;2.72;2.47;;;;;;;;;;5018495;28;20085;-73
2023/06/20 00:31:30;;;;;;;2.67;2.45;;;;;;;;;;5018508;28;20414;-73
2023/06/20 00:33:55;;;;;;;2.92;2.60;;;;;;;;;;5018460;28;20052;-73
2023/06/20 00:36:25;;;;;;;3.05;2.33;;;;;;;;;;5035142;28;20037;-72
2023/06/20 00:38:54;;;;;;;2.53;2.33;;;;;;;;;;5018719;28;20137;-72
2023/06/20 00:41:20;;;;;;;2.70;2.50;;;;;;;;;;5018008;28;20037;-72
2023/06/20 00:43:49;;;;;;;5.30;2.75;;;;;;;;;;5019987;28;20150;-74
2023/06/20 00:46:17;;;;;;;6.57;3.20;;;;;;;;;;5023921;28;20406;-73
2023/06/20 00:48:45;;;;;;;4.82;2.53;;;;;;;;;;5017847;28;20069;-72
2023/06/20 00:51:11;;;;;;;2.45;2.25;;;;;;;;;;5019502;28;20060;-71
2023/06/20 00:53:37;;;;;;;2.45;2.25;;;;;;;;;;5037019;28;20041;-73
2023/06/20 00:56:02;;;;;;;3.58;2.55;;;;;;;;;;5023552;28;20049;-71
2023/06/20 00:58:28;;;;;;;2.80;2.60;;;;;;;;;;5023162;28;20041;-71
2023/06/20 01:00:54;;;;;;;5.30;2.92;;;;;;;;;;5022778;28;20072;-72
2023/06/20 01:03:20;;;;;;;2.83;2.40;;;;;;;;;;5021369;28;20160;-72
2023/06/20 01:05:54;;;;;;;3.75;2.65;;;;;;;;;;5037084;28;20041;-73
2023/06/20 01:08:32;;;;;;;3.80;2.80;;;;;;;;;;5025853;28;20041;-72
2023/06/20 01:11:31;;;;;;;3.78;2.80;;;;;;;;;;5019699;28;20108;-70
2023/06/20 01:14:04;;;;;;;3.55;3.20;;;;;;;;;;5020395;28;20060;-71
2023/06/20 01:16:42;;;;;;;4.30;2.78;;;;;;;;;;5020879;28;20084;-71
2023/06/20 01:19:15;;;;;;;3.28;2.80;;;;;;;;;;5017853;28;20053;-72
2023/06/20 01:21:54;;;;;;;3.85;3.03;;;;;;;;;;5021709;28;20042;-72
2023/06/20 01:24:25;;;;;;;3.40;3.10;;;;;;;;;;5021511;28;20076;-72
2023/06/20 01:27:24;;;;;;;3.33;3.00;;;;;;;;;;5020720;28;20057;-71
2023/06/20 01:29:59;;;;;;;4.57;3.10;;;;;;;;;;5020389;28;20091;-74
2023/06/20 01:32:28;;;;;;;3.90;3.05;;;;;;;;;;5021635;28;20037;-72
2023/06/20 01:35:21;;;;;;;4.55;2.90;;;;;;;;;;5029778;28;20049;-72
2023/06/20 01:37:52;;;;;;;2.97;2.78;;;;;;;;;;5022118;28;20073;-72
2023/06/20 01:40:20;;;;;;;3.28;2.90;;;;;;;;;;5022784;28;20042;-73
2023/06/20 01:42:47;;;;;;;5.65;2.83;;;;;;;;;;5022042;28;20453;-73
2023/06/20 01:45:15;;;;;;;5.97;3.17;;;;;;;;;;5021164;28;20414;-72
2023/06/20 01:47:41;;;;;;;4.82;2.97;;;;;;;;;;5021555;28;20049;-72
2023/06/20 01:50:08;;;;;;;3.88;2.78;;;;;;;;;;5022510;28;20152;-75
2023/06/20 01:52:36;;;;;;;5.50;3.00;;;;;;;;;;5020404;28;20049;-73
2023/06/20 01:55:04;;;;;;;4.88;3.17;;;;;;;;;;5020879;28;20049;-71
2023/06/20 01:57:34;;;;;;;5.78;3.08;;;;;;;;;;5021044;28;20088;-72
2023/06/20 02:00:10;;;;;;;4.28;3.22;;;;;;;;;;5019850;28;20044;-72
2023/06/20 02:02:39;;;;;;;4.55;3.50;;;;;;;;;;5021846;28;20061;-73
2023/06/20 02:05:06;;;;;;;4.72;3.20;;;;;;;;;;5019543;28;20115;-73
2023/06/20 02:07:32;;;;;;;3.67;3.00;;;;;;;;;;5020916;28;20053;-72
2023/06/20 02:10:02;;;;;;;6.93;3.72;;;;;;;;;;5019663;28;20095;-72
2023/06/20 02:12:28;;;;;;;4.35;3.72;;;;;;;;;;5020212;28;20048;-73
2023/06/20 02:14:56;;;;;;;12.63;4.10;;;;;;;;;;5020000;28;20445;-73
2023/06/20 02:17:21;;;;;;;6.43;2.97;;;;;;;;;;5020636;28;20061;-73
2023/06/20 02:19:47;;;;;;;3.22;2.92;;;;;;;;;;5022199;28;20092;-73
2023/06/20 02:22:14;;;;;;;9.98;3.85;;;;;;;;;;5020952;28;20083;-74
2023/06/20 02:24:43;;;;;;;6.50;3.50;;;;;;;;;;5020060;28;20152;-73
2023/06/20 02:27:12;;;;;;;3.67;3.30;;;;;;;;;;5020671;28;20041;-73
2023/06/20 02:29:39;;;;;;;5.93;3.20;;;;;;;;;;5021705;28;20064;-72
2023/06/20 02:32:07;;;;;;;4.10;3.35;;;;;;;;;;5020869;28;20057;-73
2023/06/20 02:34:38;;;;;;;3.95;2.70;;;;;;;;;;5021302;28;20045;-73
2023/06/20 02:37:05;;;;;;;3.40;3.10;;;;;;;;;;5021657;28;20053;-73
2023/06/20 02:39:31;;;;;;;4.90;3.25;;;;;;;;;;5021854;28;20037;-73
2023/06/20 02:41:58;;;;;;;4.20;3.38;;;;;;;;;;5020212;28;20049;-73
2023/06/20 02:44:23;;;;;;;3.60;3.30;;;;;;;;;;5019034;28;20041;-73
2023/06/20 02:47:07;;;;;;;4.88;2.78;;;;;;;;;;5003272;28;20094;-73
2023/06/20 02:49:55;;;;;;;3.50;3.20;;;;;;;;;;5002378;28;20049;-73
2023/06/20 02:52:45;;;;;;;4.55;3.60;;;;;;;;;;5003257;28;20079;-73
2023/06/20 02:55:17;;;;;;;7.60;3.88;;;;;;;;;;5011104;28;20142;-73
2023/06/20 02:57:46;;;;;;;4.40;3.20;;;;;;;;;;5003298;28;20038;-73
2023/06/20 03:00:13;;;;;;;4.18;3.33;;;;;;;;;;5020946;28;20045;-72
2023/06/20 03:02:50;;;;;;;7.97;3.63;;;;;;;;;;5019176;28;20037;-72
2023/06/20 03:05:17;;;;;;;4.68;4.28;;;;;;;;;;5018868;28;20053;-72
2023/06/20 03:07:44;;;;;;;6.70;4.25;;;;;;;;;;5019399;28;20100;-74
2023/06/20 03:10:10;;;;;;;5.80;4.80;;;;;;;;;;5019148;28;20057;-73
2023/06/20 03:12:37;;;;;;;5.40;4.90;;;;;;;;;;5002558;28;20171;-74
2023/06/20 03:15:02;;;;;;;5.70;5.10;;;;;;;;;;5020767;28;20049;-73
2023/06/20 03:17:28;;;;;;;6.18;5.30;;;;;;;;;;5017819;28;20059;-73
2023/06/20 03:19:54;;;;;;;9.02;5.05;;;;;;;;;;5035482;28;20042;-74
2023/06/20 03:22:22;;;;;;;9.90;5.32;;;;;;;;;;5019314;28;20050;-74
2023/06/20 03:24:49;;;;;;;5.05;4.40;;;;;;;;;;5020372;28;20650;-73
2023/06/20 03:27:15;;;;;;;5.05;4.07;;;;;;;;;;5033310;28;20045;-73
2023/06/20 03:29:41;;;;;;;6.05;4.05;;;;;;;;;;5000536;28;20102;-73
2023/06/20 03:32:07;;;;;;;4.15;3.75;;;;;;;;;;5002576;28;20041;-73
2023/06/20 03:34:33;;;;;;;4.43;3.90;;;;;;;;;;5001374;28;20058;-73
2023/06/20 03:36:59;;;;;;;9.27;4.05;;;;;;;;;;5019470;28;20056;-73
2023/06/20 03:39:25;;;;;;;7.88;3.90;;;;;;;;;;5014990;28;20042;-70
2023/06/20 03:41:50;;;;;;;5.50;3.20;;;;;;;;;;5034946;28;20569;-74
2023/06/20 03:44:18;;;;;;;3.53;3.20;;;;;;;;;;5020286;28;20049;-71
2023/06/20 03:46:43;;;;;;;5.88;3.20;;;;;;;;;;5020151;28;20399;-74
2023/06/20 03:49:09;;;;;;;4.60;3.13;;;;;;;;;;5034272;28;20045;-72
2023/06/20 03:51:35;;;;;;;5.93;3.38;;;;;;;;;;5035470;28;20477;-72
2023/06/20 03:54:01;;;;;;;3.58;3.25;;;;;;;;;;5035759;28;20045;-71
2023/06/20 03:56:26;;;;;;;4.03;3.60;;;;;;;;;;5036496;28;20041;-73
2023/06/20 03:58:52;;;;;;;4.43;3.35;;;;;;;;;;5034852;28;20433;-73
2023/06/20 04:01:17;;;;;;;10.05;5.80;;;;;;;;;;5000308;28;20053;-77
2023/06/20 04:03:43;;;;;;;4.05;3.25;;;;;;;;;;5035045;28;20045;-74
2023/06/20 04:06:09;;;;;;;3.42;3.13;;;;;;;;;;5019210;28;20152;-75
2023/06/20 04:08:35;;;;;;;7.43;3.55;;;;;;;;;;5019443;28;20120;-72
2023/06/20 04:11:00;;;;;;;6.00;3.70;;;;;;;;;;5021129;28;20050;-75
2023/06/20 04:13:26;;;;;;;4.47;3.50;;;;;;;;;;5024579;28;20110;-74
2023/06/20 04:15:52;;;;;;;3.83;3.15;;;;;;;;;;5023189;28;20046;-76
2023/06/20 04:18:17;;;;;;;4.05;3.65;;;;;;;;;;5021113;28;20548;-76
2023/06/20 04:20:43;;;;;;;3.88;3.30;;;;;;;;;;5020052;28;20140;-79
2023/06/20 04:23:08;;;;;;;3.65;2.95;;;;;;;;;;5020723;28;20060;-73
2023/06/20 04:25:36;;;;;;;28.60;4.97;;;;;;;;;;5036680;28;20034;-76
2023/06/20 04:28:02;;;;;;;4.45;3.25;;;;;;;;;;5025732;28;20088;-75
2023/06/20 04:30:39;;;;;;;4.63;3.17;;;;;;;;;;5043244;28;20033;-72
2023/06/20 04:33:04;;;;;;;4.72;3.50;;;;;;;;;;5028338;28;20038;-72
2023/06/20 04:35:31;;;;;;;5.15;3.03;;;;;;;;;;5043572;28;20953;-72
2023/06/20 04:38:01;;;;;;;5.88;3.60;;;;;;;;;;5027678;28;20033;-72
2023/06/20 04:40:28;;;;;;;4.82;3.60;;;;;;;;;;5023429;28;20061;-71
2023/06/20 04:42:53;;;;;;;8.93;3.60;;;;;;;;;;5045128;28;20138;-71
2023/06/20 04:45:18;;;;;;;3.90;3.50;;;;;;;;;;5041735;28;20045;-72
2023/06/20 04:47:44;;;;;;;4.03;3.50;;;;;;;;;;5022901;28;20513;-74
2023/06/20 04:50:09;;;;;;;8.30;3.15;;;;;;;;;;5037253;28;20100;-70
2023/06/20 04:52:36;;;;;;;11.68;3.67;;;;;;;;;;5020797;28;20042;-72
2023/06/20 04:55:02;;;;;;;3.78;3.20;;;;;;;;;;5020822;28;20483;-70
2023/06/20 04:57:31;;;;;;;4.55;3.75;;;;;;;;;;5037535;28;20053;-70
2023/06/20 04:59:57;;;;;;;6.47;3.60;;;;;;;;;;5026644;28;20052;-73
2023/06/20 05:02:23;;;;;;;5.10;3.42;;;;;;;;;;5023809;28;20049;-73
2023/06/20 05:04:49;;;;;;;7.30;3.70;;;;;;;;;;5022934;28;20044;-72
2023/06/20 05:07:14;;;;;;;5.38;3.58;;;;;;;;;;5024062;28;20045;-72
2023/06/20 05:09:40;;;;;;;6.68;4.20;;;;;;;;;;5029060;28;20095;-71
2023/06/20 05:12:06;;;;;;;7.53;3.38;;;;;;;;;;5021645;28;20052;-72
2023/06/20 05:14:31;;;;;;;3.80;3.35;;;;;;;;;;5022664;28;20045;-73
2023/06/20 05:16:57;;;;;;;3.88;3.47;;;;;;;;;;5021450;28;20068;-74
2023/06/20 05:19:22;;;;;;;6.68;3.65;;;;;;;;;;5021423;28;20908;-73
2023/06/20 05:21:48;;;;;;;4.78;3.30;;;;;;;;;;5020760;28;20040;-74
2023/06/20 05:24:14;;;;;;;4.90;3.35;;;;;;;;;;5037138;28;20053;-72
2023/06/20 05:26:39;;;;;;;4.90;3.75;;;;;;;;;;5021723;28;20048;-72
2023/06/20 05:29:05;;;;;;;6.07;3.85;;;;;;;;;;5021788;28;20060;-72
2023/06/20 05:31:30;;;;;;;5.63;3.70;;;;;;;;;;5020583;28;20088;-72
2023/06/20 05:33:56;;;;;;;4.05;3.33;;;;;;;;;;5022652;28;20044;-73
2023/06/20 05:36:21;;;;;;;3.40;3.10;;;;;;;;;;5022112;28;20467;-73
2023/06/20 05:38:49;;;;;;;3.47;3.03;;;;;;;;;;5020501;28;20053;-73
2023/06/20 05:41:15;;;;;;;3.50;3.13;;;;;;;;;;5023283;28;20069;-73
2023/06/20 05:43:41;;;;;;;5.60;3.25;;;;;;;;;;5021745;28;20049;-73
2023/06/20 05:46:06;;;;;;;9.32;3.10;;;;;;;;;;5023345;28;20453;-73
2023/06/20 05:48:33;;;;;;;3.70;2.80;;;;;;;;;;5021498;28;20081;-73
2023/06/20 05:51:00;;;;;;;10.10;2.95;;;;;;;;;;5022452;28;20558;-73
2023/06/20 05:53:26;;;;;;;10.10;3.25;;;;;;;;;;5005063;28;20045;-73
2023/06/20 05:55:51;;;;;;;7.28;2.92;;;;;;;;;;5023610;28;20077;-73
2023/06/20 05:58:18;;;;;;;4.15;2.75;;;;;;;;;;5023097;28;20080;-73
2023/06/20 06:00:44;;;;;;;2.83;2.47;;;;;;;;;;5021849;28;20131;-73
2023/06/20 06:03:10;;;;;;;3.05;2.80;;;;;;;;;;5020704;28;20075;-72
2023/06/20 06:05:35;;;;;;;2.60;2.40;;;;;;;;;;5022770;28;20498;-73
2023/06/20 06:08:00;;;;;;;3.03;2.55;;;;;;;;;;5022207;28;20073;-73
2023/06/20 06:10:26;;;;;;;2.28;2.08;;;;;;;;;;5022353;28;20103;-72
2023/06/20 06:12:51;;;;;;;2.83;2.45;;;;;;;;;;5020845;28;20044;-73
2023/06/20 06:15:17;;;;;;;3.17;2.30;;;;;;;;;;5021342;28;20656;-73
2023/06/20 06:17:43;;;;;;;2.28;2.08;;;;;;;;;;5022240;28;20588;-73
2023/06/20 06:20:17;;;;;;;4.35;2.25;;;;;;;;;;5023164;28;20119;-74
2023/06/20 06:22:43;;;;;;;2.88;2.15;;;;;;;;;;5002755;28;20049;-72
2023/06/20 06:25:08;;;;;;;2.15;2.03;;;;;;;;;;5020629;28;20449;-71
2023/06/20 06:27:34;;;;;;;3.05;1.77;;;;;;;;;;5022235;28;20037;-72
2023/06/20 06:30:00;;;;;;;2.25;2.05;;;;;;;;;;5022172;28;20052;-74
2023/06/20 06:32:27;;;;;;;2.10;1.90;;;;;;;;;;5021935;28;20053;-73
2023/06/20 06:34:53;;;;;;;5.05;2.20;;;;;;;;;;5020157;28;20095;-71
2023/06/20 06:37:20;;;;;;;3.17;1.83;;;;;;;;;;5022171;28;20065;-72
2023/06/20 06:39:46;;;;;;;15.35;1.90;;;;;;;;;;5021394;28;20073;-71
2023/06/20 06:42:12;;;;;;;3.50;2.00;;;;;;;;;;5021721;28;20092;-72
2023/06/20 06:44:38;;;;;;;2.25;2.08;;;;;;;;;;5035592;28;20080;-72
2023/06/20 06:47:04;;;;;;;1.70;1.60;;;;;;;;;;5023680;28;20088;-74
2023/06/20 06:49:31;;;;;;;2.20;1.73;;;;;;;;;;5021449;28;21021;-72
2023/06/20 06:51:56;;;;;;;3.70;1.80;;;;;;;;;;5021089;28;20560;-71
2023/06/20 06:54:22;;;;;;;2.28;2.08;;;;;;;;;;5021652;28;20083;-72
2023/06/20 06:56:47;;;;;;;1.77;1.65;;;;;;;;;;5020138;28;20145;-72
2023/06/20 06:59:13;;;;;;;2.00;1.77;;;;;;;;;;5020448;28;20227;-74
2023/06/20 07:01:38;;;;;;;1.92;1.73;;;;;;;;;;5020932;28;20041;-71
2023/06/20 07:04:04;;;;;;;2.60;1.83;;;;;;;;;;5021990;28;20403;-72
2023/06/20 07:06:30;;;;;;;1.88;1.73;;;;;;;;;;5020413;28;20075;-73
2023/06/20 07:08:55;;;;;;;1.90;1.80;;;;;;;;;;5020955;28;20084;-73
2023/06/20 07:11:22;;;;;;;4.85;1.52;;;;;;;;;;5021972;28;20108;-72
2023/06/20 07:13:47;;;;;;;5.72;1.92;;;;;;;;;;5021313;28;20052;-73
2023/06/20 07:16:13;;;;;;;2.92;1.80;;;;;;;;;;5020393;28;20398;-72
2023/06/20 07:18:38;;;;;;;4.07;1.70;;;;;;;;;;5018752;28;20103;-73
2023/06/20 07:21:04;;;;;;;1.88;1.58;;;;;;;;;;5021501;28;20466;-73
2023/06/20 07:23:30;;;;;;;1.55;1.45;;;;;;;;;;5020889;28;20053;-75
2023/06/20 07:25:55;;;;;;;5.60;1.70;;;;;;;;;;5021434;28;20060;-72
2023/06/20 07:28:21;;;;;;;1.80;1.60;;;;;;;;;;5018619;28;20052;-72
2023/06/20 07:30:46;;;;;;;3.92;1.60;;;;;;;;;;5035351;28;20142;-72
2023/06/20 07:33:11;;;;;;;1.50;1.40;;;;;;;;;;5034659;28;20056;-72
2023/06/20 07:35:37;;;;;;;2.58;1.48;;;;;;;;;;5021457;28;20041;-73
2023/06/20 07:38:02;;;;;;;1.70;1.60;;;;;;;;;;5020864;28;20409;-72
2023/06/20 07:40:28;;;;;;;1.80;1.70;;;;;;;;;;5020167;28;20045;-71
2023/06/20 07:42:53;;;;;;;2.30;1.50;;;;;;;;;;5020016;28;20083;-74
2023/06/20 07:45:18;;;;;;;3.67;1.60;;;;;;;;;;5021193;28;20783;-74
2023/06/20 07:47:44;;;;;;;1.58;1.48;;;;;;;;;;5021003;28;20045;-74
2023/06/20 07:50:09;;;;;;;3.75;1.50;;;;;;;;;;5020851;28;20053;-74
2023/06/20 07:52:36;;;;;;;1.55;1.30;;;;;;;;;;5011119;28;20509;-74
2023/06/20 07:55:03;;;;;;;15.35;1.92;;;;;;;;;;5019654;28;20057;-75
2023/06/20 07:57:28;;;;;;;1.75;1.40;;;;;;;;;;4988153;28;20095;-73
2023/06/20 07:59:54;;;;;;;3.83;1.60;;;;;;;;;;5020743;28;20053;-74
2023/06/20 08:02:20;;;;;;;4.85;1.33;;;;;;;;;;5019601;28;20413;-74
2023/06/20 08:04:45;;;;;;;2.10;1.40;;;;;;;;;;5035362;28;20157;-74
2023/06/20 08:07:11;;;;;;;3.78;1.50;;;;;;;;;;5036146;28;20203;-74
2023/06/20 08:09:36;;;;;;;1.50;1.40;;;;;;;;;;5019252;28;20045;-75
2023/06/20 08:12:02;;;;;;;4.43;1.80;;;;;;;;;;5020826;28;20454;-75
2023/06/20 08:14:27;;;;;;;6.18;1.55;;;;;;;;;;5019832;28;20049;-75
2023/06/20 08:16:53;;;;;;;2.13;1.50;;;;;;;;;;5018220;28;20052;-75
2023/06/20 08:19:18;;;;;;;3.13;1.75;;;;;;;;;;5020007;28;20932;-75
2023/06/20 08:21:43;;;;;;;3.58;1.60;;;;;;;;;;5020259;28;20042;-76
2023/06/20 08:24:09;;;;;;;1.90;1.42;;;;;;;;;;5034699;28;20089;-75
2023/06/20 08:26:34;;;;;;;2.38;1.48;;;;;;;;;;5019660;28;20052;-76
2023/06/20 08:29:00;;;;;;;3.63;1.42;;;;;;;;;;5020017;28;20555;-75
2023/06/20 08:31:40;;;;;;;2.22;1.70;;;;;;;;;;5020093;28;20060;-75
2023/06/20 08:34:06;;;;;;;2.60;1.40;;;;;;;;;;5019840;28;20060;-75
2023/06/20 08:36:34;;;;;;;2.80;1.58;;;;;;;;;;5018558;28;20406;-75
2023/06/20 08:39:01;;;;;;;3.78;1.50;;;;;;;;;;5018457;28;20049;-75
2023/06/20 08:41:26;;;;;;;1.40;1.30;;;;;;;;;;5019471;28;20053;-75
2023/06/20 08:43:52;;;;;;;2.72;1.80;;;;;;;;;;5019363;28;20041;-75
2023/06/20 08:46:18;;;;;;;1.58;1.48;;;;;;;;;;5019209;28;21144;-75
2023/06/20 08:48:44;;;;;;;3.40;1.60;;;;;;;;;;5018603;28;20076;-75
2023/06/20 08:51:15;;;;;;;3.65;1.90;;;;;;;;;;5034349;28;20060;-75
2023/06/20 08:53:44;;;;;;;1.23;1.13;;;;;;;;;;5019084;28;20087;-76
2023/06/20 08:56:10;;;;;;;2.97;1.40;;;;;;;;;;5018407;28;20402;-75
2023/06/20 08:58:35;;;;;;;3.42;1.35;;;;;;;;;;5019107;28;20502;-74
2023/06/20 09:01:00;;;;;;;1.00;1.00;;;;;;;;;;5020072;28;20506;-75
2023/06/20 09:03:26;;;;;;;3.03;1.00;;;;;;;;;;5020160;28;20103;-76
2023/06/20 09:05:51;;;;;;;1.40;1.30;;;;;;;;;;5019633;28;20152;-75
2023/06/20 09:08:17;;;;;;;1.55;1.45;;;;;;;;;;5018809;28;20494;-75
2023/06/20 09:10:44;;;;;;;3.70;1.38;;;;;;;;;;5019128;28;20072;-75
2023/06/20 09:13:11;;;;;;;0.90;0.90;;;;;;;;;;5020446;28;20068;-74
2023/06/20 09:15:38;;;;;;;1.05;0.90;;;;;;;;;;5023819;28;20049;-75
2023/06/20 09:18:06;;;;;;;2.30;0.77;;;;;;;;;;5023144;28;20060;-75
2023/06/20 09:20:32;;;;;;;2.90;1.13;;;;;;;;;;5021069;28;20087;-74
2023/06/20 09:22:58;;;;;;;1.38;1.25;;;;;;;;;;5022769;28;20072;-74
2023/06/20 09:25:26;;;;;;;1.15;1.05;;;;;;;;;;5023310;28;20092;-74
2023/06/20 09:27:53;;;;;;;1.73;1.40;;;;;;;;;;5024017;28;20053;-74
2023/06/20 09:30:18;;;;;;;1.67;1.40;;;;;;;;;;5023421;28;20053;-74
2023/06/20 09:32:44;;;;;;;1.13;1.08;;;;;;;;;;5022699;28;20040;-74
2023/06/20 09:35:11;;;;;;;1.02;1.02;;;;;;;;;;5023538;28;20061;-74
2023/06/20 09:37:41;;;;;;;1.38;0.95;;;;;;;;;;5023290;28;20045;-74
2023/06/20 09:40:11;;;;;;;1.15;1.10;;;;;;;;;;5022926;28;20494;-75
2023/06/20 09:42:41;;;;;;;1.02;0.90;;;;;;;;;;5021873;28;20053;-74
2023/06/20 09:45:07;;;;;;;1.80;1.10;;;;;;;;;;5022770;28;20068;-73
2023/06/20 09:47:38;;;;;;;1.42;0.85;;;;;;;;;;5013599;28;20141;-74
2023/06/20 09:50:08;;;;;;;1.05;1.02;;;;;;;;;;5021571;28;20045;-72
2023/06/20 09:52:45;;;;;;;1.40;1.10;;;;;;;;;;5005203;28;20410;-73
2023/06/20 09:55:15;;;;;;;1.10;1.00;;;;;;;;;;5017288;28;20049;-74
2023/06/20 09:57:49;;;;;;;3.57;1.47;;;;;;;;;;5022441;28;20080;-74
2023/06/20 10:00:16;;;;;;;1.33;0.95;;;;;;;;;;5004445;28;20387;-74
2023/06/20 10:02:45;;;;;;;1.40;1.23;;;;;;;;;;5020873;28;20049;-75
2023/06/20 10:05:19;;;;;;;2.95;1.48;;;;;;;;;;5022523;28;20074;-74
2023/06/20 10:07:46;;;;;;;2.75;1.17;;;;;;;;;;5020629;28;20038;-74
2023/06/20 10:10:13;;;;;;;1.00;1.00;;;;;;;;;;5020745;28;20111;-73
2023/06/20 10:12:40;;;;;;;4.97;1.40;;;;;;;;;;5021368;28;20481;-74
2023/06/20 10:15:07;;;;;;;1.05;1.00;;;;;;;;;;5021776;28;20048;-73
2023/06/20 10:17:38;;;;;;;1.45;1.35;;;;;;;;;;5021926;28;20068;-74
2023/06/20 10:20:07;;;;;;;1.73;1.30;;;;;;;;;;5020077;28;20196;-74
2023/06/20 10:22:42;;;;;;;3.17;1.40;;;;;;;;;;5021195;28;20145;-74
2023/06/20 10:25:15;;;;;;;1.67;1.40;;;;;;;;;;5033325;28;20056;-73
2023/06/20 10:27:53;;;;;;;1.30;1.20;;;;;;;;;;5022034;28;20095;-73
2023/06/20 10:30:54;;;;;;;1.25;1.25;;;;;;;;;;5022028;28;20057;-74
2023/06/20 10:33:24;;;;;;;2.08;1.63;;;;;;;;;;5015374;28;20130;-73
2023/06/20 10:35:57;;;;;;;1.50;1.40;;;;;;;;;;5021275;28;20126;-73
2023/06/20 10:38:23;;;;;;;1.83;1.42;;;;;;;;;;5021438;28;20509;-74
2023/06/20 10:41:04;;;;;;;1.77;1.10;;;;;;;;;;5020912;28;20041;-74
2023/06/20 10:43:29;;;;;;;1.42;1.15;;;;;;;;;;5021486;28;20100;-74
2023/06/20 10:45:59;;;;;;;3.60;1.10;;;;;;;;;;5022036;28;20403;-75
2023/06/20 10:48:26;;;;;;;0.93;0.90;;;;;;;;;;5020798;28;20173;-75
2023/06/20 10:51:10;;;;;;;2.35;1.10;;;;;;;;;;5019437;28;20049;-76
2023/06/20 10:53:36;;;;;;;1.48;1.30;;;;;;;;;;5021871;28;20048;-75
2023/06/20 10:56:01;;;;;;;1.55;1.00;;;;;;;;;;5021536;28;20033;-75
2023/06/20 10:58:27;;;;;;;1.10;1.10;;;;;;;;;;5020619;28;20099;-75
2023/06/20 11:00:53;;;;;;;2.65;1.20;;;;;;;;;;5020710;28;20046;-75
2023/06/20 11:03:21;;;;;;;1.20;1.10;;;;;;;;;;5021165;28;20053;-74
2023/06/20 11:05:50;;;;;;;1.20;1.10;;;;;;;;;;5021401;28;20148;-74
2023/06/20 11:08:26;;;;;;;1.40;1.30;;;;;;;;;;5018529;28;20057;-74
2023/06/20 11:10:55;;;;;;;1.50;1.40;;;;;;;;;;5020371;28;20049;-74
2023/06/20 11:13:23;;;;;;;2.92;1.40;;;;;;;;;;5020908;28;20144;-74
2023/06/20 11:15:49;;;;;;;2.85;1.25;;;;;;;;;;5021391;28;20049;-76
2023/06/20 11:18:14;;;;;;;1.58;1.40;;;;;;;;;;5003007;28;20063;-75
2023/06/20 11:20:41;;;;;;;1.95;1.13;;;;;;;;;;5018119;28;20133;-74
2023/06/20 11:23:10;;;;;;;2.70;1.60;;;;;;;;;;5018520;28;20136;-75
2023/06/20 11:25:37;;;;;;;3.60;1.40;;;;;;;;;;5019642;28;20095;-73
2023/06/20 11:28:08;;;;;;;1.40;1.30;;;;;;;;;;5020657;28;20053;-74
2023/06/20 11:30:37;;;;;;;2.10;1.40;;;;;;;;;;5020221;28;20049;-73
2023/06/20 11:33:09;;;;;;;1.35;1.05;;;;;;;;;;5015365;28;20050;-75
2023/06/20 11:35:44;;;;;;;2.00;1.52;;;;;;;;;;5016751;28;20073;-75
2023/06/20 11:38:13;;;;;;;2.05;1.08;;;;;;;;;;5016483;28;20449;-73
2023/06/20 11:40:40;;;;;;;2.17;1.55;;;;;;;;;;5017306;28;20042;-75
2023/06/20 11:43:06;;;;;;;1.30;1.17;;;;;;;;;;5016391;28;20054;-73
2023/06/20 11:45:32;;;;;;;1.70;1.15;;;;;;;;;;5018601;28;20045;-75
2023/06/20 11:48:09;;;;;;;4.10;1.20;;;;;;;;;;5016450;28;20080;-75
2023/06/20 11:50:35;;;;;;;1.77;1.20;;;;;;;;;;5015784;28;20045;-74
2023/06/20 11:53:02;;;;;;;2.08;1.27;;;;;;;;;;5017625;28;20502;-73
2023/06/20 11:55:45;;;;;;;3.08;1.10;;;;;;;;;;5003891;28;20200;-75
2023/06/20 11:58:11;;;;;;;3.58;1.38;;;;;;;;;;5017875;28;20057;-75
2023/06/20 12:00:37;;;;;;;1.35;1.25;;;;;;;;;;5016143;28;20053;-75
2023/06/20 12:03:09;;;;;;;5.50;1.63;;;;;;;;;;5017033;28;20184;-74
2023/06/20 12:05:34;;;;;;;2.53;1.40;;;;;;;;;;5028010;28;20049;-74
2023/06/20 12:08:00;;;;;;;1.83;1.30;;;;;;;;;;5024757;28;20038;-75
2023/06/20 12:10:28;;;;;;;1.63;1.48;;;;;;;;;;5020350;28;20056;-75
2023/06/20 12:12:53;;;;;;;1.88;1.38;;;;;;;;;;5017596;28;20140;-74
2023/06/20 12:15:19;;;;;;;2.55;1.60;;;;;;;;;;5030409;28;20132;-74
2023/06/20 12:17:45;;;;;;;3.22;1.67;;;;;;;;;;5007098;28;20085;-74
2023/06/20 12:20:10;;;;;;;3.60;1.70;;;;;;;;;;5016705;28;20053;-74
2023/06/20 12:22:36;;;;;;;3.45;1.40;;;;;;;;;;5015039;28;20057;-74
2023/06/20 12:25:03;;;;;;;2.90;1.63;;;;;;;;;;5015214;28;20045;-73
2023/06/20 12:27:29;;;;;;;2.55;1.90;;;;;;;;;;5016900;28;21092;-73
2023/06/20 12:29:54;;;;;;;2.53;1.60;;;;;;;;;;5017260;28;20414;-73
2023/06/20 12:32:20;;;;;;;2.78;1.48;;;;;;;;;;5015265;28;20045;-73
2023/06/20 12:34:45;;;;;;;3.35;1.35;;;;;;;;;;5013712;28;20072;-73
2023/06/20 12:37:11;;;;;;;3.60;1.48;;;;;;;;;;5015176;28;20037;-73
2023/06/20 12:39:36;;;;;;;4.97;1.63;;;;;;;;;;5015948;28;20402;-74
2023/06/20 12:42:02;;;;;;;3.72;1.90;;;;;;;;;;5015749;28;20053;-73
2023/06/20 12:44:27;;;;;;;2.25;1.90;;;;;;;;;;5017780;28;20060;-73
2023/06/20 12:46:53;;;;;;;5.05;1.80;;;;;;;;;;5030860;28;20056;-74
2023/06/20 12:49:20;;;;;;;3.75;2.05;;;;;;;;;;5016897;28;20046;-73
2023/06/20 12:51:45;;;;;;;5.82;2.20;;;;;;;;;;5021496;28;20041;-74
2023/06/20 12:54:11;;;;;;;3.38;1.70;;;;;;;;;;5019751;28;20049;-75
2023/06/20 12:56:37;;;;;;;4.13;1.92;;;;;;;;;;5020507;28;20041;-73
2023/06/20 12:59:04;;;;;;;8.00;1.95;;;;;;;;;;5018077;28;20049;-74
2023/06/20 13:01:30;;;;;;;3.55;1.75;;;;;;;;;;5021185;28;20041;-74
2023/06/20 13:03:56;;;;;;;3.58;1.90;;;;;;;;;;5021670;28;20051;-73
2023/06/20 13:06:22;;;;;;;6.45;2.05;;;;;;;;;;5023615;28;20041;-73
2023/06/20 13:08:47;;;;;;;5.07;2.30;;;;;;;;;;5020304;28;20057;-74
2023/06/20 13:11:14;;;;;;;3.53;1.90;;;;;;;;;;5020926;28;20759;-73
2023/06/20 13:13:40;;;;;;;6.07;2.03;;;;;;;;;;5021561;28;20049;-73
2023/06/20 13:16:05;;;;;;;2.75;1.88;;;;;;;;;;5022147;28;20061;-73
2023/06/20 13:18:31;;;;;;;2.15;1.83;;;;;;;;;;5021708;28;20056;-74
2023/06/20 13:20:56;;;;;;;3.72;2.35;;;;;;;;;;5019479;28;20136;-72
2023/06/20 13:23:22;;;;;;;3.35;1.90;;;;;;;;;;5022040;28;20562;-74
2023/06/20 13:25:48;;;;;;;3.33;2.13;;;;;;;;;;5021708;28;20045;-77
2023/06/20 13:28:14;;;;;;;4.93;2.50;;;;;;;;;;5022746;28;20520;-75
2023/06/20 13:30:39;;;;;;;8.30;2.30;;;;;;;;;;5022382;28;20045;-72
2023/06/20 13:33:05;;;;;;;4.97;2.25;;;;;;;;;;5021341;28;20172;-74
2023/06/20 13:35:30;;;;;;;6.28;1.70;;;;;;;;;;5021577;28;20104;-75
2023/06/20 13:37:58;;;;;;;5.32;1.80;;;;;;;;;;5021922;28;20052;-75
2023/06/20 13:40:30;;;;;;;5.95;2.10;;;;;;;;;;5022286;28;20049;-74
2023/06/20 13:42:56;;;;;;;3.83;2.30;;;;;;;;;;5002503;28;20133;-74
2023/06/20 13:45:22;;;;;;;5.45;2.10;;;;;;;;;;5021158;28;20236;-73
2023/06/20 13:47:48;;;;;;;3.95;1.90;;;;;;;;;;5020171;28;20059;-73
2023/06/20 13:50:16;;;;;;;7.38;2.35;;;;;;;;;;5021938;28;20319;-74
2023/06/20 13:52:42;;;;;;;7.95;2.30;;;;;;;;;;5020511;28;20406;-72
2023/06/20 13:55:13;;;;;;;5.28;2.55;;;;;;;;;;5020260;28;20494;-76
2023/06/20 13:57:39;;;;;;;6.47;2.10;;;;;;;;;;5030031;28;20136;-72
2023/06/20 14:00:10;;;;;;;7.13;2.05;;;;;;;;;;5020496;28;20136;-72
2023/06/20 14:02:41;;;;;;;4.72;1.95;;;;;;;;;;5025584;28;20045;-73
2023/06/20 14:05:07;;;;;;;5.85;2.05;;;;;;;;;;5022510;28;20056;-73
2023/06/20 14:07:34;;;;;;;6.78;2.17;;;;;;;;;;5022751;28;20057;-71
2023/06/20 14:10:03;;;;;;;4.32;2.17;;;;;;;;;;5009241;28;20846;-72
2023/06/20 14:12:28;;;;;;;5.70;2.03;;;;;;;;;;5021869;28;20136;-71
2023/06/20 14:14:54;;;;;;;6.65;2.00;;;;;;;;;;5020857;28;20095;-73
2023/06/20 14:17:19;;;;;;;4.13;2.10;;;;;;;;;;5021161;28;20131;-71
2023/06/20 14:19:45;;;;;;;4.38;2.22;;;;;;;;;;5016165;28;21099;-72
2023/06/20 14:22:10;;;;;;;4.70;2.00;;;;;;;;;;5021182;28;20049;-72
2023/06/20 14:24:36;;;;;;;7.97;2.22;;;;;;;;;;5035723;28;20123;-72
2023/06/20 14:27:03;;;;;;;4.72;2.00;;;;;;;;;;5001036;28;20041;-71
2023/06/20 14:29:31;;;;;;;6.15;2.10;;;;;;;;;;5019419;28;20048;-72
2023/06/20 14:31:57;;;;;;;7.82;2.13;;;;;;;;;;5019703;28;20136;-72
2023/06/20 14:34:23;;;;;;;3.95;2.53;;;;;;;;;;5003926;28;20049;-71
2023/06/20 14:36:48;;;;;;;4.13;2.58;;;;;;;;;;5002917;28;20052;-72
2023/06/20 14:39:13;;;;;;;3.40;2.10;;;;;;;;;;5019390;28;20483;-71
2023/06/20 14:41:40;;;;;;;8.68;2.78;;;;;;;;;;5021450;28;20049;-71
2023/06/20 14:44:05;;;;;;;3.70;2.35;;;;;;;;;;5019567;28;20140;-71
2023/06/20 14:46:31;;;;;;;8.60;2.58;;;;;;;;;;5020790;28;20132;-73